Time;durP1;ratioP1;P1;durP2;ratioP2;P2;SDS_P1;SDS_P2;PMS_P1;PMS_P2;Temp;Humidity;BMP_temperature;BMP_pressure;BME280_temperature;BME280_humidity;BME280_pressure;Samples;Min_cycle;Max_cycle;Signal;HPM_P1;HPM_P2
2023/04/01 00:00:20;;;;;;;5.68;3.30;;;10.80;99.90;;;;;;5056423;28;20421;-62
2023/04/01 00:02:47;;;;;;;5.40;3.17;;;10.80;99.90;;;;;;5056561;28;20123;-62
2023/04/01 00:05:13;;;;;;;4.82;3.08;;;10.80;99.90;;;;;;5065332;28;20055;-62
2023/04/01 00:07:39;;;;;;;6.63;3.70;;;10.80;99.90;;;;;;5067641;28;20044;-62
2023/04/01 00:10:07;;;;;;;5.72;3.20;;;10.80;99.90;;;;;;5054096;28;20434;-62
2023/04/01 00:12:33;;;;;;;5.80;3.13;;;10.80;99.90;;;;;;5048679;28;20189;-63
2023/04/01 00:14:59;;;;;;;6.18;3.33;;;10.80;99.90;;;;;;5045860;28;20071;-63
2023/04/01 00:17:25;;;;;;;5.22;3.03;;;10.80;99.90;;;;;;5044638;28;20040;-62
2023/04/01 00:19:50;;;;;;;5.50;3.50;;;10.80;99.90;;;;;;5044511;28;20110;-63
2023/04/01 00:22:16;;;;;;;6.00;3.20;;;10.80;99.90;;;;;;5045217;28;20036;-62
2023/04/01 00:24:42;;;;;;;5.65;3.33;;;10.80;99.90;;;;;;5045798;28;20090;-61
2023/04/01 00:27:08;;;;;;;6.38;3.22;;;10.80;99.90;;;;;;5046546;28;20554;-61
2023/04/01 00:29:34;;;;;;;6.97;3.35;;;10.80;99.90;;;;;;5052818;28;20225;-62
2023/04/01 00:32:00;;;;;;;6.47;3.30;;;10.80;99.90;;;;;;5058922;28;20135;-62
2023/04/01 00:34:26;;;;;;;6.32;3.30;;;10.80;99.90;;;;;;5062773;28;20040;-63
2023/04/01 00:36:52;;;;;;;5.18;3.30;;;10.70;99.90;;;;;;5055919;28;20058;-62
2023/04/01 00:39:19;;;;;;;5.10;3.40;;;10.70;99.90;;;;;;5060534;28;20075;-62
2023/04/01 00:41:44;;;;;;;7.10;3.83;;;10.70;99.90;;;;;;5065341;28;20083;-62
2023/04/01 00:44:23;;;;;;;5.55;3.63;;;10.70;99.90;;;;;;5059207;28;20092;-61
2023/04/01 00:46:49;;;;;;;5.53;3.45;;;10.70;99.90;;;;;;5059402;28;20637;-62
2023/04/01 00:49:17;;;;;;;5.95;3.53;;;10.70;99.90;;;;;;5058059;28;20514;-62
2023/04/01 00:51:47;;;;;;;5.60;3.45;;;10.80;99.90;;;;;;5056640;28;20079;-61
2023/04/01 00:54:15;;;;;;;5.28;3.08;;;10.70;99.90;;;;;;5052708;28;20052;-62
2023/04/01 00:56:59;;;;;;;5.70;3.88;;;10.80;99.90;;;;;;5054839;28;20055;-62
2023/04/01 00:59:33;;;;;;;7.03;3.72;;;10.80;99.90;;;;;;5062051;28;20040;-62
2023/04/01 01:02:01;;;;;;;6.53;3.80;;;10.80;99.90;;;;;;5064240;28;20068;-62
2023/04/01 01:04:29;;;;;;;6.20;3.88;;;10.80;99.90;;;;;;5067359;28;20498;-62
2023/04/01 01:06:59;;;;;;;7.00;3.85;;;10.80;99.90;;;;;;5069780;28;20044;-62
2023/04/01 01:09:39;;;;;;;7.10;3.50;;;10.70;99.90;;;;;;5060163;28;20448;-62
2023/04/01 01:12:17;;;;;;;6.28;3.75;;;10.70;99.90;;;;;;5063149;28;20159;-62
2023/04/01 01:15:18;;;;;;;5.72;3.60;;;10.70;99.90;;;;;;5056219;28;20123;-62
2023/04/01 01:18:01;;;;;;;5.90;3.47;;;10.70;99.90;;;;;;5058380;28;20094;-63
2023/04/01 01:20:40;;;;;;;5.43;3.67;;;10.80;99.90;;;;;;5063791;28;20459;-62
2023/04/01 01:23:19;;;;;;;5.57;3.88;;;10.80;99.90;;;;;;5061074;28;20056;-62
2023/04/01 01:26:39;;;;;;;6.20;3.60;;;10.80;99.90;;;;;;5056153;28;20060;-63
2023/04/01 01:29:20;;;;;;;6.43;4.05;;;10.80;99.90;;;;;;5019173;28;20056;-62
2023/04/01 01:31:54;;;;;;;6.35;4.07;;;10.80;99.90;;;;;;5050732;28;20109;-63
2023/04/01 01:34:40;;;;;;;6.13;4.15;;;10.80;99.90;;;;;;5064547;28;20470;-63
2023/04/01 01:37:10;;;;;;;6.43;4.03;;;10.80;99.90;;;;;;5057742;28;20088;-62
2023/04/01 01:39:37;;;;;;;5.88;3.90;;;10.70;99.90;;;;;;5061026;28;20037;-63
2023/04/01 01:42:06;;;;;;;6.57;4.15;;;10.80;99.90;;;;;;5062280;28;20051;-63
2023/04/01 01:44:33;;;;;;;6.45;4.10;;;10.80;99.90;;;;;;5061273;28;20412;-62
2023/04/01 01:47:00;;;;;;;8.52;4.60;;;10.80;99.90;;;;;;5076480;28;20049;-62
2023/04/01 01:49:27;;;;;;;7.25;4.68;;;10.80;99.90;;;;;;5067753;28;20085;-63
2023/04/01 01:51:53;;;;;;;6.53;4.55;;;10.80;99.90;;;;;;5065659;28;20080;-63
2023/04/01 01:54:19;;;;;;;7.15;4.30;;;10.80;99.90;;;;;;5052176;28;20614;-62
2023/04/01 01:56:48;;;;;;;6.95;4.47;;;10.80;99.90;;;;;;5049987;28;20045;-62
2023/04/01 01:59:16;;;;;;;6.70;4.13;;;10.80;99.90;;;;;;5047853;28;20044;-62
2023/04/01 02:01:49;;;;;;;7.15;4.93;;;10.80;99.90;;;;;;5050298;28;20079;-62
2023/04/01 02:04:16;;;;;;;7.63;4.70;;;10.80;99.90;;;;;;5046392;28;20048;-62
2023/04/01 02:07:11;;;;;;;7.45;5.00;;;10.80;99.90;;;;;;5056201;28;20048;-62
2023/04/01 02:09:38;;;;;;;6.78;5.28;;;10.80;99.90;;;;;;5046211;28;20061;-63
2023/04/01 02:12:07;;;;;;;7.60;4.88;;;10.80;99.90;;;;;;5045739;28;20055;-63
2023/04/01 02:14:49;;;;;;;7.75;5.00;;;10.80;99.90;;;;;;5044713;28;20201;-62
2023/04/01 02:17:18;;;;;;;8.38;4.65;;;10.80;99.90;;;;;;5048035;28;20513;-63
2023/04/01 02:19:50;;;;;;;7.70;5.00;;;10.80;99.90;;;;;;5045004;28;20108;-62
2023/04/01 02:22:21;;;;;;;7.85;5.00;;;10.80;99.90;;;;;;5048729;28;20101;-62
2023/04/01 02:24:49;;;;;;;8.07;5.30;;;10.80;99.90;;;;;;5054746;28;20071;-62
2023/04/01 02:27:15;;;;;;;7.13;4.65;;;10.80;99.90;;;;;;5059942;28;20050;-63
2023/04/01 02:29:40;;;;;;;8.43;5.05;;;10.80;99.90;;;;;;5057905;28;20116;-63
2023/04/01 02:32:07;;;;;;;7.60;5.10;;;10.80;99.90;;;;;;5051498;28;20037;-62
2023/04/01 02:34:33;;;;;;;7.90;5.40;;;10.80;99.90;;;;;;5059246;28;20036;-62
2023/04/01 02:36:59;;;;;;;7.60;5.13;;;10.80;99.90;;;;;;5061747;28;20043;-62
2023/04/01 02:39:26;;;;;;;8.32;4.97;;;10.80;99.90;;;;;;5055426;28;20032;-62
2023/04/01 02:41:52;;;;;;;8.48;4.90;;;10.80;99.90;;;;;;5056909;28;20077;-62
2023/04/01 02:44:18;;;;;;;8.32;5.07;;;10.80;99.90;;;;;;5055463;28;20066;-62
2023/04/01 02:46:44;;;;;;;7.50;4.72;;;10.80;99.90;;;;;;5048718;28;20425;-62
2023/04/01 02:49:09;;;;;;;6.93;4.82;;;10.80;99.90;;;;;;5052711;28;20056;-63
2023/04/01 02:51:35;;;;;;;6.55;4.72;;;10.80;99.90;;;;;;5060043;28;20059;-62
2023/04/01 02:54:01;;;;;;;7.82;5.18;;;10.80;99.90;;;;;;5052697;28;20082;-62
2023/04/01 02:56:26;;;;;;;7.20;5.10;;;10.80;99.90;;;;;;5057242;28;20041;-62
2023/04/01 02:58:53;;;;;;;5.95;4.32;;;10.80;99.90;;;;;;5053182;28;20051;-62
2023/04/01 03:01:19;;;;;;;7.28;4.85;;;10.80;99.90;;;;;;5064064;28;20044;-62
2023/04/01 03:03:45;;;;;;;8.07;5.40;;;10.80;99.90;;;;;;5065577;28;20036;-63
2023/04/01 03:06:13;;;;;;;8.40;5.20;;;10.80;99.90;;;;;;5062087;28;20039;-62
2023/04/01 03:08:39;;;;;;;6.55;4.72;;;10.80;99.90;;;;;;5065454;28;20033;-62
2023/04/01 03:11:05;;;;;;;8.02;4.88;;;10.80;99.90;;;;;;5068897;28;20066;-62
2023/04/01 03:13:31;;;;;;;7.82;5.07;;;10.80;99.90;;;;;;5063080;28;20081;-63
2023/04/01 03:15:57;;;;;;;7.25;4.82;;;10.80;99.90;;;;;;5057051;28;20348;-63
2023/04/01 03:18:22;;;;;;;7.80;5.07;;;10.80;99.90;;;;;;5050292;28;20453;-62
2023/04/01 03:20:48;;;;;;;8.70;5.60;;;10.80;99.90;;;;;;5057099;28;20048;-62
2023/04/01 03:23:14;;;;;;;8.90;5.40;;;10.80;99.90;;;;;;5051022;28;20116;-63
2023/04/01 03:25:40;;;;;;;9.57;5.47;;;10.80;99.90;;;;;;5065776;28;20426;-62
2023/04/01 03:28:05;;;;;;;8.50;5.47;;;10.80;99.90;;;;;;5062380;28;20067;-62
2023/04/01 03:30:31;;;;;;;8.98;5.65;;;10.80;99.90;;;;;;5053746;28;20234;-63
2023/04/01 03:32:58;;;;;;;8.88;5.72;;;10.80;99.90;;;;;;5060774;28;20103;-63
2023/04/01 03:35:23;;;;;;;9.80;6.18;;;10.80;99.90;;;;;;5062562;28;20033;-63
2023/04/01 03:37:51;;;;;;;8.07;5.80;;;10.80;99.90;;;;;;5052690;28;20066;-63
2023/04/01 03:40:17;;;;;;;10.23;6.38;;;10.80;99.90;;;;;;5061093;28;20104;-62
2023/04/01 03:42:42;;;;;;;8.60;5.38;;;10.80;99.90;;;;;;5056467;28;20432;-62
2023/04/01 03:45:09;;;;;;;9.15;6.10;;;10.80;99.90;;;;;;5057392;28;20132;-63
2023/04/01 03:47:35;;;;;;;8.00;5.43;;;10.80;99.90;;;;;;5057645;28;20037;-62
2023/04/01 03:50:00;;;;;;;9.15;6.20;;;10.80;99.90;;;;;;5064219;28;20102;-62
2023/04/01 03:52:26;;;;;;;9.43;6.13;;;10.80;99.90;;;;;;5055820;28;20333;-62
2023/04/01 03:54:51;;;;;;;9.77;6.40;;;10.80;99.90;;;;;;5057846;28;20047;-62
2023/04/01 03:57:17;;;;;;;9.75;6.40;;;10.80;99.90;;;;;;5059327;28;20037;-63
2023/04/01 03:59:43;;;;;;;10.35;6.40;;;10.80;99.90;;;;;;5043087;28;21391;-62
2023/04/01 04:02:08;;;;;;;9.23;5.72;;;10.80;99.90;;;;;;5045949;28;20115;-63
2023/04/01 04:04:34;;;;;;;8.82;5.63;;;10.80;99.90;;;;;;5049561;28;20144;-62
2023/04/01 04:07:00;;;;;;;9.10;6.07;;;10.80;99.90;;;;;;5042982;28;20552;-62
2023/04/01 04:09:25;;;;;;;9.57;6.45;;;10.80;99.90;;;;;;5045072;28;20068;-63
2023/04/01 04:11:51;;;;;;;10.38;6.53;;;10.80;99.90;;;;;;5044074;28;20130;-63
2023/04/01 04:14:17;;;;;;;12.55;7.20;;;10.80;99.90;;;;;;5043411;28;20427;-63
2023/04/01 04:16:42;;;;;;;10.95;7.05;;;10.80;99.90;;;;;;5044405;28;20088;-63
2023/04/01 04:19:08;;;;;;;10.45;6.75;;;10.80;99.90;;;;;;5053831;28;20033;-63
2023/04/01 04:21:34;;;;;;;10.43;7.18;;;10.80;99.90;;;;;;5045740;28;20090;-63
2023/04/01 04:24:02;;;;;;;11.80;7.30;;;10.80;99.90;;;;;;5045213;28;20106;-63
2023/04/01 04:26:28;;;;;;;12.73;7.88;;;10.80;99.90;;;;;;5043612;28;20583;-63
2023/04/01 04:28:55;;;;;;;11.02;7.15;;;10.80;99.90;;;;;;5042124;28;20056;-63
2023/04/01 04:31:22;;;;;;;12.48;7.65;;;10.80;99.90;;;;;;5055619;28;20050;-62
2023/04/01 04:33:48;;;;;;;12.48;7.57;;;10.80;99.90;;;;;;5057083;28;20163;-62
2023/04/01 04:36:14;;;;;;;12.20;7.65;;;10.80;99.90;;;;;;5055699;28;20415;-62
2023/04/01 04:38:40;;;;;;;12.25;7.93;;;10.80;99.90;;;;;;5050063;28;20618;-62
2023/04/01 04:41:11;;;;;;;10.60;6.97;;;10.80;99.90;;;;;;5049175;28;20059;-62
2023/04/01 04:43:37;;;;;;;11.63;7.47;;;10.80;99.90;;;;;;5048390;28;20479;-63
2023/04/01 04:46:09;;;;;;;11.95;7.75;;;10.80;99.90;;;;;;5053712;28;20218;-63
2023/04/01 04:48:35;;;;;;;14.77;8.32;;;10.80;99.90;;;;;;5052231;28;20368;-62
2023/04/01 04:51:02;;;;;;;12.95;8.02;;;10.80;99.90;;;;;;5050208;28;20041;-62
2023/04/01 04:53:27;;;;;;;11.90;7.35;;;10.80;99.90;;;;;;5050024;28;20052;-62
2023/04/01 04:55:53;;;;;;;15.63;8.05;;;10.80;99.90;;;;;;5062212;28;20037;-62
2023/04/01 04:58:19;;;;;;;12.43;7.95;;;10.80;99.90;;;;;;5055530;28;20119;-62
2023/04/01 05:00:45;;;;;;;13.55;8.07;;;10.80;99.90;;;;;;5054776;28;20400;-62
2023/04/01 05:03:11;;;;;;;13.70;8.70;;;10.80;99.90;;;;;;5056050;28;20036;-62
2023/04/01 05:05:37;;;;;;;13.68;8.80;;;10.80;99.90;;;;;;5053249;28;20087;-62
2023/04/01 05:08:03;;;;;;;15.68;9.43;;;10.80;99.90;;;;;;5059310;28;20391;-64
2023/04/01 05:10:29;;;;;;;13.85;8.68;;;10.80;99.90;;;;;;5060534;28;20045;-62
2023/04/01 05:12:55;;;;;;;14.82;9.00;;;10.80;99.90;;;;;;5066192;28;20048;-62
2023/04/01 05:15:21;;;;;;;15.23;8.98;;;10.80;99.90;;;;;;5061144;28;20183;-62
2023/04/01 05:17:46;;;;;;;15.82;8.98;;;10.80;99.90;;;;;;5067309;28;20091;-62
2023/04/01 05:20:14;;;;;;;14.85;9.10;;;10.80;99.90;;;;;;5069555;28;20191;-63
2023/04/01 05:22:40;;;;;;;14.63;8.88;;;10.70;99.90;;;;;;5058425;28;20066;-62
2023/04/01 05:25:06;;;;;;;15.70;8.32;;;10.70;99.90;;;;;;5058267;28;20080;-63
2023/04/01 05:27:32;;;;;;;10.75;6.57;;;10.70;99.90;;;;;;5063078;28;20060;-63
2023/04/01 05:29:58;;;;;;;10.48;6.00;;;10.70;99.90;;;;;;5048930;28;20052;-63
2023/04/01 05:32:24;;;;;;;9.80;5.30;;;10.70;99.90;;;;;;5047520;28;20033;-62
2023/04/01 05:34:54;;;;;;;7.55;4.38;;;10.60;99.90;;;;;;5058175;28;20044;-62
2023/04/01 05:37:19;;;;;;;6.13;3.58;;;10.60;99.90;;;;;;5072736;28;20047;-63
2023/04/01 05:39:45;;;;;;;6.63;3.92;;;10.60;99.90;;;;;;5076659;28;20048;-63
2023/04/01 05:42:11;;;;;;;6.93;3.50;;;10.60;99.90;;;;;;5055117;28;20129;-63
2023/04/01 05:44:36;;;;;;;7.30;3.45;;;10.60;99.90;;;;;;5067970;28;20357;-63
2023/04/01 05:47:04;;;;;;;5.63;3.17;;;10.60;99.90;;;;;;5071606;28;20052;-62
2023/04/01 05:49:29;;;;;;;6.93;3.33;;;10.60;99.90;;;;;;5058634;28;20128;-63
2023/04/01 05:51:56;;;;;;;6.15;2.90;;;10.60;99.90;;;;;;5044906;28;20053;-63
2023/04/01 05:54:22;;;;;;;5.75;2.60;;;10.60;99.90;;;;;;5048238;28;20442;-62
2023/04/01 05:56:47;;;;;;;5.20;2.35;;;10.60;99.90;;;;;;5048090;28;20041;-64
2023/04/01 05:59:14;;;;;;;5.18;2.15;;;10.60;99.90;;;;;;5047497;28;20595;-62
2023/04/01 06:01:39;;;;;;;4.93;2.38;;;10.60;99.90;;;;;;5049442;28;20064;-64
2023/04/01 06:04:05;;;;;;;4.57;2.20;;;10.60;99.90;;;;;;5052570;28;20059;-63
2023/04/01 06:06:32;;;;;;;5.40;2.78;;;10.60;99.90;;;;;;5052111;28;20407;-63
2023/04/01 06:09:07;;;;;;;5.35;2.70;;;10.60;99.90;;;;;;5047011;28;20052;-64
2023/04/01 06:12:17;;;;;;;5.00;2.63;;;10.60;99.90;;;;;;5046681;28;20451;-63
2023/04/01 06:14:46;;;;;;;7.65;3.72;;;10.60;99.90;;;;;;5043402;28;20049;-63
2023/04/01 06:17:43;;;;;;;7.47;3.78;;;10.60;99.90;;;;;;5046628;28;20040;-63
2023/04/01 06:20:24;;;;;;;7.43;3.92;;;10.70;99.90;;;;;;5048223;28;20063;-63
2023/04/01 06:22:57;;;;;;;9.35;4.95;;;10.70;99.90;;;;;;5048218;28;20071;-63
2023/04/01 06:25:35;;;;;;;9.43;5.35;;;10.70;99.90;;;;;;5046030;28;20457;-63
2023/04/01 06:28:16;;;;;;;9.55;6.05;;;10.70;99.90;;;;;;5046603;28;20714;-63
2023/04/01 06:31:05;;;;;;;11.32;6.28;;;10.70;99.90;;;;;;5046888;28;20580;-64
2023/04/01 06:33:44;;;;;;;14.45;6.93;;;10.70;99.90;;;;;;5047729;28;20358;-63
2023/04/01 06:36:29;;;;;;;15.40;7.90;;;10.70;99.90;;;;;;5052065;28;20139;-63
2023/04/01 06:38:57;;;;;;;15.25;7.40;;;10.70;99.90;;;;;;5049012;28;20484;-63
2023/04/01 06:41:25;;;;;;;14.85;7.30;;;10.80;99.90;;;;;;5045808;28;20121;-62
2023/04/01 06:43:59;;;;;;;14.60;6.82;;;10.80;99.90;;;;;;5047677;28;20063;-62
2023/04/01 06:46:45;;;;;;;14.63;6.90;;;10.80;99.90;;;;;;5044745;28;20041;-62
2023/04/01 06:49:33;;;;;;;13.38;6.00;;;10.80;99.90;;;;;;5044527;28;20992;-61
2023/04/01 06:52:26;;;;;;;11.82;6.22;;;10.90;99.90;;;;;;5050553;28;20064;-63
2023/04/01 06:55:01;;;;;;;10.48;5.05;;;10.90;99.90;;;;;;5057815;28;20062;-62
2023/04/01 06:57:35;;;;;;;10.63;5.38;;;10.90;99.90;;;;;;5054593;28;20542;-62
2023/04/01 07:00:13;;;;;;;9.98;4.60;;;11.00;99.90;;;;;;5068917;28;20112;-62
2023/04/01 07:02:57;;;;;;;8.13;4.45;;;11.00;99.90;;;;;;5052454;28;20044;-62
2023/04/01 07:05:24;;;;;;;8.30;4.30;;;11.10;99.90;;;;;;5065281;28;20565;-62
2023/04/01 07:07:54;;;;;;;8.50;4.57;;;11.20;99.90;;;;;;5053667;28;20419;-62
2023/04/01 07:10:52;;;;;;;7.38;4.13;;;11.20;99.90;;;;;;5057001;28;20064;-63
2023/04/01 07:13:48;;;;;;;10.13;4.80;;;11.30;99.90;;;;;;5062664;28;20067;-63
2023/04/01 07:16:34;;;;;;;10.25;5.35;;;11.30;99.90;;;;;;5051671;28;20052;-63
2023/04/01 07:19:02;;;;;;;9.65;5.32;;;11.20;99.90;;;;;;5052100;28;20041;-63
2023/04/01 07:21:41;;;;;;;12.57;6.00;;;11.20;99.90;;;;;;5070263;28;20055;-62
2023/04/01 07:24:15;;;;;;;12.32;6.07;;;11.20;99.90;;;;;;5055666;28;20036;-64
2023/04/01 07:26:41;;;;;;;10.38;5.30;;;11.20;99.90;;;;;;5068225;28;20048;-63
2023/04/01 07:29:12;;;;;;;9.52;5.13;;;11.30;99.90;;;;;;5058933;28;20356;-63
2023/04/01 07:31:50;;;;;;;8.70;4.15;;;11.40;99.90;;;;;;5061736;28;20047;-63
2023/04/01 07:34:42;;;;;;;7.70;4.13;;;11.40;99.90;;;;;;5056268;28;20040;-63
2023/04/01 07:37:14;;;;;;;8.90;4.38;;;11.50;99.90;;;;;;5059953;28;20533;-63
2023/04/01 07:40:11;;;;;;;9.38;4.20;;;11.50;99.90;;;;;;5069356;28;20125;-63
2023/04/01 07:42:55;;;;;;;8.70;4.35;;;11.60;99.90;;;;;;5069320;28;20048;-63
2023/04/01 07:45:20;;;;;;;7.55;3.85;;;11.70;99.90;;;;;;5059999;28;20074;-64
2023/04/01 07:48:27;;;;;;;8.50;4.55;;;11.70;99.90;;;;;;5069581;28;20045;-63
2023/04/01 07:51:04;;;;;;;8.23;4.10;;;11.90;99.90;;;;;;5069813;28;20052;-63
2023/04/01 07:53:46;;;;;;;7.05;4.07;;;12.00;99.90;;;;;;5067081;28;20044;-62
2023/04/01 07:56:23;;;;;;;8.90;4.68;;;12.20;99.90;;;;;;5071204;28;20045;-62
2023/04/01 07:59:07;;;;;;;8.73;5.03;;;12.30;99.90;;;;;;5070265;28;20055;-63
2023/04/01 08:01:44;;;;;;;9.40;5.88;;;12.20;99.90;;;;;;5068538;28;20041;-63
2023/04/01 08:04:33;;;;;;;8.77;5.88;;;12.20;99.90;;;;;;5069452;28;20071;-63
2023/04/01 08:07:03;;;;;;;8.38;5.35;;;12.30;99.90;;;;;;5059586;28;20061;-64
2023/04/01 08:09:42;;;;;;;7.43;4.88;;;12.40;99.90;;;;;;5058953;28;20048;-62
2023/04/01 08:12:25;;;;;;;7.78;4.60;;;12.50;99.90;;;;;;5063201;28;20044;-63
2023/04/01 08:15:27;;;;;;;8.02;4.30;;;12.40;99.90;;;;;;5067671;28;20049;-63
2023/04/01 08:17:55;;;;;;;7.50;4.32;;;12.40;99.90;;;;;;5061045;28;20448;-63
2023/04/01 08:20:36;;;;;;;6.25;3.47;;;12.60;99.90;;;;;;5055106;28;20041;-63
2023/04/01 08:23:16;;;;;;;5.38;3.20;;;12.60;99.90;;;;;;5069359;28;20123;-64
2023/04/01 08:26:04;;;;;;;4.95;2.90;;;12.70;99.90;;;;;;5064454;28;20432;-63
2023/04/01 08:28:29;;;;;;;4.63;2.40;;;12.80;99.90;;;;;;5067063;28;20059;-62
2023/04/01 08:31:05;;;;;;;5.38;2.50;;;12.80;99.90;;;;;;5068302;28;20440;-61
2023/04/01 08:33:33;;;;;;;4.60;2.40;;;12.70;99.90;;;;;;5064566;28;20399;-62
2023/04/01 08:36:05;;;;;;;4.25;2.47;;;12.70;99.90;;;;;;5066284;28;20119;-61
2023/04/01 08:38:55;;;;;;;4.60;2.55;;;12.80;99.90;;;;;;5073591;28;20052;-62
2023/04/01 08:41:27;;;;;;;3.78;2.10;;;12.80;99.90;;;;;;5069410;28;20699;-62
2023/04/01 08:44:01;;;;;;;4.63;2.75;;;12.80;99.90;;;;;;5060086;28;20067;-62
2023/04/01 08:46:32;;;;;;;4.75;2.70;;;12.80;99.90;;;;;;5060932;28;20120;-63
2023/04/01 08:49:17;;;;;;;4.30;2.42;;;12.80;99.90;;;;;;5071034;28;20044;-62
2023/04/01 08:51:49;;;;;;;4.28;2.45;;;12.70;99.90;;;;;;5069185;28;20048;-61
2023/04/01 08:54:29;;;;;;;5.90;3.05;;;12.70;99.90;;;;;;5069815;28;20064;-62
2023/04/01 08:57:10;;;;;;;5.20;3.30;;;12.70;99.90;;;;;;5065819;28;20403;-62
2023/04/01 08:59:57;;;;;;;7.47;3.80;;;12.70;99.90;;;;;;5073989;28;20516;-62
2023/04/01 09:02:47;;;;;;;6.32;4.03;;;12.70;99.90;;;;;;5073692;28;20213;-61
2023/04/01 09:05:32;;;;;;;6.10;3.65;;;12.60;99.90;;;;;;5073346;28;20352;-62
2023/04/01 09:08:17;;;;;;;5.75;3.75;;;12.50;99.90;;;;;;5078328;28;20040;-62
2023/04/01 09:11:16;;;;;;;6.68;3.95;;;12.50;99.90;;;;;;5069995;28;20048;-61
2023/04/01 09:14:03;;;;;;;7.47;4.38;;;12.40;99.90;;;;;;5061787;28;20052;-64
2023/04/01 09:16:51;;;;;;;6.85;4.10;;;12.40;99.90;;;;;;5063066;28;20128;-64
2023/04/01 09:19:37;;;;;;;6.30;4.00;;;12.50;99.90;;;;;;5053150;28;20075;-63
2023/04/01 09:22:36;;;;;;;6.78;4.35;;;12.50;99.90;;;;;;5070666;28;20491;-61
2023/04/01 09:25:24;;;;;;;5.75;3.85;;;12.60;99.90;;;;;;5064959;28;20091;-62
2023/04/01 09:27:57;;;;;;;6.45;4.00;;;12.50;99.90;;;;;;5066704;28;20113;-61
2023/04/01 09:30:52;;;;;;;7.30;4.20;;;12.60;99.90;;;;;;5061273;28;20056;-62
2023/04/01 09:33:36;;;;;;;6.10;3.53;;;12.50;99.90;;;;;;5067839;28;20048;-62
2023/04/01 09:36:29;;;;;;;4.90;2.80;;;12.50;99.90;;;;;;5067361;28;20044;-62
2023/04/01 09:39:13;;;;;;;5.10;2.15;;;12.30;99.90;;;;;;5057105;28;20060;-62
2023/04/01 09:42:00;;;;;;;4.30;2.10;;;12.40;99.90;;;;;;5076328;28;20090;-62
2023/04/01 09:44:55;;;;;;;3.33;1.45;;;12.60;99.90;;;;;;5069856;28;20352;-61
2023/04/01 09:47:41;;;;;;;3.08;1.73;;;12.60;99.90;;;;;;5063418;28;20436;-62
2023/04/01 09:50:06;;;;;;;3.65;1.67;;;12.70;99.90;;;;;;5063009;28;20045;-61
2023/04/01 09:52:32;;;;;;;4.15;1.60;;;12.70;99.90;;;;;;5065665;28;20193;-61
2023/04/01 09:55:35;;;;;;;3.33;1.40;;;12.80;99.90;;;;;;5070604;28;20444;-61
2023/04/01 09:58:42;;;;;;;3.60;2.05;;;12.80;99.90;;;;;;5067191;28;20117;-62
2023/04/01 10:01:31;;;;;;;4.25;1.80;;;12.90;99.90;;;;;;5075167;28;20378;-64
2023/04/01 10:04:24;;;;;;;4.40;2.00;;;12.90;99.90;;;;;;5061906;28;20140;-61
2023/04/01 10:07:02;;;;;;;5.13;2.20;;;13.00;99.90;;;;;;5069773;28;20051;-62
2023/04/01 10:09:51;;;;;;;5.63;2.90;;;13.00;99.90;;;;;;5069804;28;20044;-62
2023/04/01 10:12:55;;;;;;;5.07;2.80;;;13.00;99.90;;;;;;5068276;28;20102;-62
2023/04/01 10:15:20;;;;;;;5.32;3.20;;;13.10;99.90;;;;;;5069764;28;20499;-61
2023/04/01 10:18:14;;;;;;;6.18;4.10;;;12.90;99.90;;;;;;5064751;28;20125;-61
2023/04/01 10:20:55;;;;;;;7.25;4.88;;;12.90;99.90;;;;;;5065077;28;20453;-61
2023/04/01 10:23:39;;;;;;;6.68;4.65;;;12.90;99.90;;;;;;5066424;28;20048;-61
2023/04/01 10:26:37;;;;;;;7.32;4.72;;;12.70;99.90;;;;;;5066664;28;20119;-61
2023/04/01 10:29:33;;;;;;;8.15;4.78;;;12.80;99.90;;;;;;5067787;28;20048;-61
2023/04/01 10:32:38;;;;;;;7.75;5.15;;;12.80;99.90;;;;;;5063675;28;20167;-62
2023/04/01 10:35:46;;;;;;;9.27;5.35;;;12.90;99.90;;;;;;5062225;28;20052;-62
2023/04/01 10:38:53;;;;;;;8.70;5.60;;;13.00;99.90;;;;;;5079586;28;20064;-62
2023/04/01 10:41:28;;;;;;;7.70;4.90;;;13.10;99.90;;;;;;5055833;28;20476;-62
2023/04/01 10:44:12;;;;;;;7.65;5.13;;;13.20;99.90;;;;;;5054932;28;20071;-62
2023/04/01 10:46:53;;;;;;;8.18;5.55;;;13.30;99.90;;;;;;5060289;28;20124;-62
2023/04/01 10:49:50;;;;;;;9.27;5.80;;;13.30;99.90;;;;;;5067454;28;20120;-62
2023/04/01 10:52:18;;;;;;;8.18;5.60;;;13.40;99.90;;;;;;5065767;28;20056;-62
2023/04/01 10:54:47;;;;;;;8.05;5.70;;;13.50;99.90;;;;;;5051334;28;20118;-62
2023/04/01 10:57:36;;;;;;;8.48;5.40;;;13.40;99.90;;;;;;5052920;28;20036;-62
2023/04/01 11:00:22;;;;;;;8.07;5.88;;;13.50;99.90;;;;;;5066750;28;20071;-62
2023/04/01 11:03:16;;;;;;;8.93;6.18;;;13.40;99.90;;;;;;5051740;28;20083;-62
2023/04/01 11:06:27;;;;;;;8.05;5.63;;;13.30;99.90;;;;;;5053702;28;20083;-62
2023/04/01 11:09:10;;;;;;;8.18;5.90;;;13.50;99.90;;;;;;5045440;28;20460;-63
2023/04/01 11:11:55;;;;;;;9.60;6.30;;;13.50;99.90;;;;;;5059633;28;20040;-63
2023/04/01 11:14:57;;;;;;;8.48;6.30;;;13.50;99.90;;;;;;5061417;28;20113;-62
2023/04/01 11:17:50;;;;;;;9.20;6.70;;;13.50;99.90;;;;;;5065233;28;20079;-62
2023/04/01 11:20:46;;;;;;;8.32;6.13;;;13.60;99.90;;;;;;5058363;28;20045;-62
2023/04/01 11:23:42;;;;;;;8.70;6.30;;;13.60;99.90;;;;;;5064764;28;20060;-62
2023/04/01 11:26:28;;;;;;;10.45;7.03;;;13.60;99.90;;;;;;5074581;28;20052;-62
2023/04/01 11:29:08;;;;;;;9.77;6.82;;;13.60;99.90;;;;;;5069043;28;20503;-62
2023/04/01 11:32:00;;;;;;;9.07;6.60;;;13.60;99.90;;;;;;5072384;28;20088;-62
2023/04/01 11:34:54;;;;;;;9.85;7.55;;;13.50;99.90;;;;;;5074574;28;20074;-62
2023/04/01 11:37:32;;;;;;;10.65;8.13;;;13.40;99.90;;;;;;5071943;28;20040;-63
2023/04/01 11:40:23;;;;;;;10.75;7.07;;;13.30;99.90;;;;;;5072019;28;20063;-62
2023/04/01 11:42:55;;;;;;;8.70;6.00;;;13.10;99.90;;;;;;5072948;28;20050;-62
2023/04/01 11:45:35;;;;;;;9.07;5.45;;;12.90;99.90;;;;;;5069370;28;20407;-62
2023/04/01 11:48:37;;;;;;;8.15;5.10;;;12.80;99.90;;;;;;5072698;28;20508;-62
2023/04/01 11:51:30;;;;;;;6.50;4.25;;;12.60;99.90;;;;;;5071541;28;20068;-63
2023/04/01 11:54:22;;;;;;;8.18;4.53;;;12.50;99.90;;;;;;5071689;28;20144;-63
2023/04/01 11:57:15;;;;;;;6.00;4.30;;;12.40;99.90;;;;;;5071862;28;20317;-62
2023/04/01 11:59:56;;;;;;;6.82;4.90;;;12.30;99.90;;;;;;5070302;28;20044;-62
2023/04/01 12:02:42;;;;;;;6.70;4.63;;;12.10;99.90;;;;;;5062942;28;20124;-63
2023/04/01 12:05:37;;;;;;;7.30;4.90;;;12.00;99.90;;;;;;5073611;28;20178;-62
2023/04/01 12:08:14;;;;;;;6.28;4.28;;;11.90;99.90;;;;;;5058268;28;20056;-63
2023/04/01 12:10:40;;;;;;;8.00;4.97;;;11.70;99.90;;;;;;5069863;28;20052;-63
2023/04/01 12:13:34;;;;;;;7.35;4.93;;;11.70;99.90;;;;;;5058557;28;20037;-63
2023/04/01 12:16:31;;;;;;;7.85;4.80;;;11.70;99.90;;;;;;5065439;28;20077;-62
2023/04/01 12:19:07;;;;;;;6.25;4.50;;;11.60;99.90;;;;;;5071210;28;20594;-62
2023/04/01 12:21:46;;;;;;;6.53;4.45;;;11.50;99.90;;;;;;5070143;28;20036;-62
2023/04/01 12:24:33;;;;;;;6.97;4.93;;;11.40;99.90;;;;;;5067096;28;20109;-62
2023/04/01 12:27:22;;;;;;;6.70;4.40;;;11.40;99.90;;;;;;5066142;28;20037;-62
2023/04/01 12:30:06;;;;;;;6.00;4.15;;;11.40;99.90;;;;;;5070159;28;20412;-63
2023/04/01 12:32:47;;;;;;;6.68;4.28;;;11.40;99.90;;;;;;5066572;28;20047;-62
2023/04/01 12:35:18;;;;;;;6.20;4.07;;;11.40;99.90;;;;;;5070073;28;20082;-62
2023/04/01 12:38:03;;;;;;;6.60;4.28;;;11.40;99.90;;;;;;5068234;28;20116;-63
2023/04/01 12:40:47;;;;;;;5.90;4.00;;;11.50;99.90;;;;;;5069076;28;20044;-64
2023/04/01 12:43:25;;;;;;;5.88;3.75;;;11.50;99.90;;;;;;5071782;28;20139;-63
2023/04/01 12:46:02;;;;;;;5.80;3.95;;;11.50;99.90;;;;;;5067355;28;20356;-64
2023/04/01 12:48:38;;;;;;;5.55;3.67;;;11.60;99.90;;;;;;5054594;28;20059;-63
2023/04/01 12:51:31;;;;;;;5.95;3.75;;;11.60;99.90;;;;;;5070284;28;20198;-63
2023/04/01 12:54:10;;;;;;;6.53;4.20;;;11.60;99.90;;;;;;5066367;28;20110;-62
2023/04/01 12:57:13;;;;;;;6.15;4.38;;;11.60;99.90;;;;;;5073677;28;20072;-63
2023/04/01 12:59:47;;;;;;;4.72;3.17;;;11.60;99.90;;;;;;5077280;28;20139;-63
2023/04/01 13:02:37;;;;;;;5.20;3.40;;;11.60;99.90;;;;;;5077876;28;20126;-63
2023/04/01 13:05:15;;;;;;;5.05;3.20;;;11.60;99.90;;;;;;5074035;28;20410;-62
2023/04/01 13:08:10;;;;;;;5.72;3.60;;;11.50;99.90;;;;;;5073837;28;20052;-62
2023/04/01 13:10:43;;;;;;;4.97;3.25;;;11.40;99.90;;;;;;5067655;28;20048;-63
2023/04/01 13:13:34;;;;;;;5.47;3.58;;;11.40;99.90;;;;;;5072962;28;20394;-63
2023/04/01 13:16:22;;;;;;;5.75;3.58;;;11.30;99.90;;;;;;5071835;28;20147;-62
2023/04/01 13:19:20;;;;;;;5.57;3.70;;;11.30;99.90;;;;;;5071845;28;20120;-63
2023/04/01 13:21:58;;;;;;;5.55;3.50;;;11.30;99.90;;;;;;5074545;28;20044;-63
2023/04/01 13:25:06;;;;;;;5.72;3.80;;;11.30;99.90;;;;;;5068924;28;20043;-63
2023/04/01 13:27:40;;;;;;;5.50;3.67;;;11.30;99.90;;;;;;5074693;28;20040;-63
2023/04/01 13:30:37;;;;;;;6.30;3.88;;;11.30;99.90;;;;;;5083209;28;20048;-63
2023/04/01 13:33:38;;;;;;;5.55;4.00;;;11.30;99.90;;;;;;5072139;28;20364;-63